SVA1017 OERK-OEJN
Flight info
| Callsign | SVA1017 |
|---|---|
| Flight time | 1h 16m |
| Altitude | 40000 |
| Route | DURMA G782 VEMEM |
| Aircraft | B77W/H-SDE2E3FGHIRWXY/L |
Departure
| Time | 2026-05-07 20:01 |
|---|---|
| Airport | King Khalid International Airport (OERK) |
Arrival
| Time | 2026-05-07 21:18 |
|---|---|
| Airport | King Abdulaziz International Airport (OEJN) |
| Time | Latitude | Longitude | Altitude | Speed | Heading |
|---|---|---|---|---|---|
| 2026-05-07 20:01 | 24.86669 | 46.76686 | 6284 ft | 260 kts | 151° |
| 2026-05-07 20:01 | 24.84969 | 46.77302 | 6925 ft | 263 kts | 175° |
| 2026-05-07 20:02 | 24.83169 | 46.76952 | 7676 ft | 268 kts | 203° |
| 2026-05-07 20:02 | 24.81556 | 46.75914 | 8348 ft | 271 kts | 212° |
| 2026-05-07 20:02 | 24.80003 | 46.74725 | 8632 ft | 274 kts | 213° |
| 2026-05-07 20:02 | 24.78450 | 46.73502 | 8620 ft | 273 kts | 214° |
| 2026-05-07 20:03 | 24.76907 | 46.72282 | 8621 ft | 274 kts | 214° |
| 2026-05-07 20:03 | 24.75372 | 46.71063 | 8617 ft | 272 kts | 214° |
| 2026-05-07 20:03 | 24.73842 | 46.69847 | 8619 ft | 271 kts | 214° |
| 2026-05-07 20:03 | 24.72314 | 46.68632 | 8616 ft | 270 kts | 214° |
| 2026-05-07 20:04 | 24.71027 | 46.67109 | 8645 ft | 282 kts | 242° |
| 2026-05-07 20:04 | 24.70323 | 46.65079 | 9292 ft | 289 kts | 249° |
| 2026-05-07 20:04 | 24.69661 | 46.62980 | 10282 ft | 290 kts | 249° |
| 2026-05-07 20:04 | 24.68972 | 46.60840 | 10920 ft | 309 kts | 248° |
| 2026-05-07 20:05 | 24.68202 | 46.58501 | 11173 ft | 341 kts | 248° |
| 2026-05-07 20:05 | 24.67344 | 46.55947 | 11474 ft | 369 kts | 248° |
| 2026-05-07 20:05 | 24.66432 | 46.53261 | 12313 ft | 379 kts | 248° |
| 2026-05-07 20:05 | 24.65494 | 46.50525 | 13382 ft | 385 kts | 248° |
| 2026-05-07 20:06 | 24.64539 | 46.47761 | 14407 ft | 390 kts | 247° |
| 2026-05-07 20:06 | 24.63568 | 46.44966 | 15401 ft | 394 kts | 247° |
| 2026-05-07 20:06 | 24.62581 | 46.42138 | 16394 ft | 399 kts | 247° |
| 2026-05-07 20:06 | 24.61578 | 46.39273 | 17398 ft | 404 kts | 247° |
| 2026-05-07 20:07 | 24.60563 | 46.36376 | 18376 ft | 409 kts | 247° |
| 2026-05-07 20:07 | 24.59534 | 46.33443 | 19221 ft | 413 kts | 247° |
| 2026-05-07 20:07 | 24.58512 | 46.30530 | 20137 ft | 416 kts | 247° |
| 2026-05-07 20:07 | 24.57454 | 46.27519 | 21044 ft | 419 kts | 248° |
| 2026-05-07 20:08 | 24.56412 | 46.24558 | 21879 ft | 423 kts | 248° |
| 2026-05-07 20:08 | 24.55333 | 46.21491 | 22715 ft | 427 kts | 248° |
| 2026-05-07 20:08 | 24.54272 | 46.18476 | 23499 ft | 431 kts | 248° |
| 2026-05-07 20:08 | 24.53187 | 46.15396 | 24173 ft | 435 kts | 248° |
| 2026-05-07 20:09 | 24.52093 | 46.12293 | 24821 ft | 438 kts | 248° |
| 2026-05-07 20:09 | 24.50988 | 46.09162 | 25464 ft | 441 kts | 248° |
| 2026-05-07 20:09 | 24.49876 | 46.06013 | 26120 ft | 444 kts | 248° |
| 2026-05-07 20:10 | 24.47622 | 45.99636 | 27362 ft | 451 kts | 248° |
| 2026-05-07 20:10 | 24.46481 | 45.96414 | 27946 ft | 454 kts | 247° |
| 2026-05-07 20:10 | 24.45334 | 45.93176 | 28524 ft | 458 kts | 247° |
| 2026-05-07 20:10 | 24.44176 | 45.89908 | 29057 ft | 461 kts | 247° |
| 2026-05-07 20:11 | 24.43008 | 45.86617 | 29554 ft | 464 kts | 247° |
| 2026-05-07 20:11 | 24.41831 | 45.83302 | 30047 ft | 467 kts | 247° |
| 2026-05-07 20:11 | 24.40655 | 45.79993 | 30583 ft | 465 kts | 247° |
| 2026-05-07 20:11 | 24.39491 | 45.76715 | 31433 ft | 455 kts | 246° |
| 2026-05-07 20:12 | 24.38358 | 45.73524 | 32389 ft | 444 kts | 246° |
| 2026-05-07 20:12 | 24.37245 | 45.70395 | 33278 ft | 436 kts | 246° |
| 2026-05-07 20:12 | 24.36153 | 45.67328 | 34035 ft | 430 kts | 245° |
| 2026-05-07 20:12 | 24.35067 | 45.64283 | 34552 ft | 428 kts | 245° |
| 2026-05-07 20:13 | 24.33980 | 45.61244 | 34933 ft | 428 kts | 245° |
| 2026-05-07 20:13 | 24.32891 | 45.58199 | 35303 ft | 429 kts | 245° |
| 2026-05-07 20:13 | 24.31803 | 45.55161 | 35743 ft | 428 kts | 245° |
| 2026-05-07 20:13 | 24.30720 | 45.52133 | 36209 ft | 426 kts | 245° |
| 2026-05-07 20:14 | 24.29642 | 45.49120 | 36628 ft | 425 kts | 245° |
| 2026-05-07 20:14 | 24.28563 | 45.46108 | 37021 ft | 424 kts | 245° |
| 2026-05-07 20:14 | 24.27484 | 45.43099 | 37394 ft | 424 kts | 245° |
| 2026-05-07 20:14 | 24.26408 | 45.40101 | 37786 ft | 423 kts | 245° |
| 2026-05-07 20:15 | 24.25334 | 45.37108 | 38166 ft | 422 kts | 245° |
| 2026-05-07 20:15 | 24.24259 | 45.34118 | 38533 ft | 421 kts | 245° |
| 2026-05-07 20:15 | 24.23186 | 45.31133 | 38859 ft | 420 kts | 245° |
| 2026-05-07 20:15 | 24.22117 | 45.28161 | 39115 ft | 420 kts | 245° |
| 2026-05-07 20:16 | 24.21044 | 45.25181 | 39362 ft | 420 kts | 245° |
| 2026-05-07 20:16 | 24.19971 | 45.22200 | 39619 ft | 420 kts | 245° |
| 2026-05-07 20:16 | 24.18898 | 45.19225 | 39865 ft | 420 kts | 245° |
| 2026-05-07 20:17 | 24.16734 | 45.13235 | 39996 ft | 424 kts | 245° |
| 2026-05-07 20:17 | 24.14685 | 45.08394 | 40032 ft | 420 kts | 241° |
| 2026-05-07 20:18 | 24.11678 | 45.01769 | 40042 ft | 417 kts | 241° |
| 2026-05-07 20:18 | 24.09102 | 44.96081 | 40043 ft | 417 kts | 241° |
| 2026-05-07 20:19 | 24.06949 | 44.91314 | 40044 ft | 417 kts | 241° |
| 2026-05-07 20:19 | 24.04398 | 44.85661 | 40051 ft | 417 kts | 241° |
| 2026-05-07 20:20 | 24.01824 | 44.79963 | 40053 ft | 418 kts | 241° |
| 2026-05-07 20:20 | 23.99250 | 44.74274 | 40053 ft | 417 kts | 241° |
| 2026-05-07 20:21 | 23.96676 | 44.68588 | 40056 ft | 417 kts | 241° |
| 2026-05-07 20:21 | 23.94104 | 44.62903 | 40050 ft | 417 kts | 242° |
| 2026-05-07 20:22 | 23.92049 | 44.56963 | 40055 ft | 421 kts | 250° |
| 2026-05-07 20:22 | 23.90660 | 44.50703 | 40057 ft | 426 kts | 252° |
| 2026-05-07 20:23 | 23.89335 | 44.44372 | 40052 ft | 427 kts | 252° |
| 2026-05-07 20:23 | 23.88004 | 44.38075 | 40043 ft | 425 kts | 252° |
| 2026-05-07 20:24 | 23.86663 | 44.31797 | 40050 ft | 423 kts | 252° |
| 2026-05-07 20:24 | 23.85320 | 44.25545 | 40047 ft | 423 kts | 252° |
| 2026-05-07 20:25 | 23.83973 | 44.19288 | 40047 ft | 424 kts | 252° |
| 2026-05-07 20:25 | 23.82622 | 44.13019 | 40036 ft | 424 kts | 252° |
| 2026-05-07 20:26 | 23.81270 | 44.06758 | 40036 ft | 423 kts | 252° |
| 2026-05-07 20:26 | 23.79915 | 44.00497 | 40047 ft | 424 kts | 252° |
| 2026-05-07 20:27 | 23.78558 | 43.94231 | 40049 ft | 425 kts | 252° |
| 2026-05-07 20:27 | 23.77192 | 43.87946 | 40036 ft | 425 kts | 252° |
| 2026-05-07 20:28 | 23.75818 | 43.81679 | 40045 ft | 424 kts | 252° |
| 2026-05-07 20:28 | 23.74444 | 43.75432 | 40046 ft | 423 kts | 252° |
| 2026-05-07 20:29 | 23.73070 | 43.69190 | 40047 ft | 423 kts | 252° |
| 2026-05-07 20:29 | 23.71696 | 43.62959 | 40050 ft | 422 kts | 252° |
| 2026-05-07 20:30 | 23.70321 | 43.56737 | 40052 ft | 422 kts | 252° |
| 2026-05-07 20:30 | 23.68942 | 43.50506 | 40057 ft | 422 kts | 252° |
| 2026-05-07 20:31 | 23.67564 | 43.44294 | 40060 ft | 421 kts | 252° |
| 2026-05-07 20:31 | 23.66184 | 43.38084 | 40058 ft | 421 kts | 252° |
| 2026-05-07 20:32 | 23.64801 | 43.31876 | 40063 ft | 421 kts | 252° |
| 2026-05-07 20:32 | 23.63419 | 43.25681 | 40062 ft | 420 kts | 252° |
| 2026-05-07 20:33 | 23.62036 | 43.19495 | 40069 ft | 420 kts | 252° |
| 2026-05-07 20:33 | 23.60652 | 43.13318 | 40072 ft | 420 kts | 251° |
| 2026-05-07 20:34 | 23.59265 | 43.07138 | 40076 ft | 419 kts | 251° |
| 2026-05-07 20:34 | 23.57880 | 43.00976 | 40066 ft | 418 kts | 251° |
| 2026-05-07 20:35 | 23.56492 | 42.94817 | 40063 ft | 418 kts | 251° |
| 2026-05-07 20:35 | 23.55111 | 42.88700 | 40061 ft | 418 kts | 251° |
| 2026-05-07 20:36 | 23.53719 | 42.82546 | 40062 ft | 418 kts | 251° |
| 2026-05-07 20:36 | 23.52326 | 42.76400 | 40054 ft | 417 kts | 251° |
| 2026-05-07 20:37 | 23.50935 | 42.70265 | 40057 ft | 418 kts | 251° |
| 2026-05-07 20:37 | 23.49538 | 42.64112 | 40053 ft | 419 kts | 251° |
| 2026-05-07 20:38 | 23.48139 | 42.57958 | 40051 ft | 419 kts | 251° |
| 2026-05-07 20:38 | 23.46739 | 42.51808 | 40051 ft | 418 kts | 251° |
| 2026-05-07 20:39 | 23.45339 | 42.45668 | 40047 ft | 417 kts | 251° |
| 2026-05-07 20:39 | 23.43937 | 42.39536 | 40046 ft | 417 kts | 251° |
| 2026-05-07 20:40 | 23.42535 | 42.33412 | 40043 ft | 417 kts | 251° |
| 2026-05-07 20:40 | 23.41130 | 42.27292 | 40050 ft | 417 kts | 251° |
| 2026-05-07 20:41 | 23.39723 | 42.21172 | 40045 ft | 416 kts | 251° |
| 2026-05-07 20:41 | 23.38315 | 42.15061 | 40046 ft | 416 kts | 251° |
| 2026-05-07 20:42 | 23.36904 | 42.08946 | 40045 ft | 416 kts | 251° |
| 2026-05-07 20:42 | 23.35493 | 42.02842 | 40044 ft | 416 kts | 251° |
| 2026-05-07 20:43 | 23.34083 | 41.96753 | 40047 ft | 414 kts | 251° |
| 2026-05-07 20:43 | 23.32675 | 41.90684 | 40047 ft | 413 kts | 251° |
| 2026-05-07 20:44 | 23.31266 | 41.84624 | 40047 ft | 414 kts | 251° |
| 2026-05-07 20:44 | 23.29851 | 41.78549 | 40046 ft | 414 kts | 251° |
| 2026-05-07 20:45 | 23.28022 | 41.72674 | 40057 ft | 409 kts | 243° |
| 2026-05-07 20:45 | 23.25519 | 41.67136 | 40049 ft | 407 kts | 237° |
| 2026-05-07 20:46 | 23.22486 | 41.61949 | 40049 ft | 406 kts | 235° |
| 2026-05-07 20:46 | 23.19409 | 41.56811 | 40056 ft | 406 kts | 235° |
| 2026-05-07 20:47 | 23.16341 | 41.51660 | 40059 ft | 405 kts | 235° |
| 2026-05-07 20:47 | 23.13310 | 41.46549 | 40062 ft | 405 kts | 235° |
| 2026-05-07 20:48 | 23.10239 | 41.41367 | 40062 ft | 405 kts | 235° |
| 2026-05-07 20:48 | 23.07216 | 41.36269 | 40061 ft | 405 kts | 235° |
| 2026-05-07 20:49 | 23.04158 | 41.31119 | 40064 ft | 405 kts | 235° |
| 2026-05-07 20:49 | 23.01101 | 41.25975 | 40058 ft | 406 kts | 235° |
| 2026-05-07 20:50 | 22.98042 | 41.20832 | 40057 ft | 405 kts | 235° |
| 2026-05-07 20:50 | 22.94987 | 41.15703 | 40055 ft | 405 kts | 235° |
| 2026-05-07 20:51 | 22.91929 | 41.10572 | 40058 ft | 406 kts | 235° |
| 2026-05-07 20:51 | 22.88864 | 41.05433 | 40051 ft | 406 kts | 235° |
| 2026-05-07 20:52 | 22.85776 | 41.00264 | 40057 ft | 411 kts | 235° |
| 2026-05-07 20:52 | 22.82645 | 40.95039 | 40056 ft | 414 kts | 235° |
| 2026-05-07 20:53 | 22.79512 | 40.89820 | 40043 ft | 411 kts | 235° |
| 2026-05-07 20:53 | 22.76402 | 40.84640 | 40047 ft | 410 kts | 235° |
| 2026-05-07 20:54 | 22.73291 | 40.79464 | 40047 ft | 410 kts | 235° |
| 2026-05-07 20:54 | 22.70173 | 40.74280 | 40055 ft | 411 kts | 235° |
| 2026-05-07 20:55 | 22.67050 | 40.69094 | 40047 ft | 411 kts | 235° |
| 2026-05-07 20:55 | 22.63928 | 40.63914 | 40053 ft | 411 kts | 235° |
| 2026-05-07 20:56 | 22.60800 | 40.58730 | 40057 ft | 411 kts | 235° |
| 2026-05-07 20:56 | 22.57681 | 40.53565 | 39863 ft | 407 kts | 235° |
| 2026-05-07 20:56 | 22.56143 | 40.51018 | 39332 ft | 402 kts | 235° |
| 2026-05-07 20:57 | 22.54621 | 40.48500 | 38813 ft | 398 kts | 235° |
| 2026-05-07 20:57 | 22.53118 | 40.46014 | 38233 ft | 393 kts | 235° |
| 2026-05-07 20:57 | 22.51630 | 40.43556 | 37602 ft | 389 kts | 235° |
| 2026-05-07 20:57 | 22.50153 | 40.41117 | 37015 ft | 386 kts | 235° |
| 2026-05-07 20:58 | 22.48685 | 40.38694 | 36343 ft | 386 kts | 235° |
| 2026-05-07 20:58 | 22.47209 | 40.36261 | 35588 ft | 387 kts | 235° |
| 2026-05-07 20:58 | 22.45731 | 40.33823 | 34858 ft | 389 kts | 235° |
| 2026-05-07 20:58 | 22.44243 | 40.31372 | 34146 ft | 390 kts | 235° |
| 2026-05-07 20:59 | 22.42750 | 40.28912 | 33324 ft | 392 kts | 236° |
| 2026-05-07 20:59 | 22.41273 | 40.26478 | 32542 ft | 393 kts | 236° |
| 2026-05-07 20:59 | 22.39751 | 40.23974 | 31843 ft | 393 kts | 236° |
| 2026-05-07 20:59 | 22.38255 | 40.21511 | 31216 ft | 391 kts | 236° |
| 2026-05-07 21:00 | 22.36787 | 40.19095 | 30603 ft | 389 kts | 236° |
| 2026-05-07 21:00 | 22.35304 | 40.16656 | 29973 ft | 388 kts | 236° |
| 2026-05-07 21:00 | 22.33805 | 40.14193 | 28654 ft | 399 kts | 236° |
| 2026-05-07 21:00 | 22.32250 | 40.11639 | 27214 ft | 413 kts | 236° |
| 2026-05-07 21:01 | 22.30653 | 40.09016 | 26104 ft | 421 kts | 236° |
| 2026-05-07 21:01 | 22.29040 | 40.06369 | 25129 ft | 423 kts | 237° |
| 2026-05-07 21:01 | 22.27339 | 40.03764 | 24225 ft | 425 kts | 232° |
| 2026-05-07 21:01 | 22.25403 | 40.01300 | 23358 ft | 425 kts | 228° |
| 2026-05-07 21:02 | 22.23335 | 39.99082 | 22574 ft | 422 kts | 223° |
| 2026-05-07 21:02 | 22.21161 | 39.96990 | 21880 ft | 417 kts | 222° |
| 2026-05-07 21:02 | 22.18992 | 39.94938 | 21156 ft | 413 kts | 222° |
| 2026-05-07 21:02 | 22.16841 | 39.92911 | 20427 ft | 410 kts | 222° |
| 2026-05-07 21:03 | 22.14708 | 39.90896 | 19728 ft | 407 kts | 222° |
| 2026-05-07 21:03 | 22.12588 | 39.88887 | 19041 ft | 404 kts | 221° |
| 2026-05-07 21:03 | 22.10490 | 39.86892 | 18382 ft | 401 kts | 221° |
| 2026-05-07 21:03 | 22.09085 | 39.85553 | 17890 ft | 399 kts | 221° |
| 2026-05-07 21:04 | 22.06346 | 39.82942 | 16954 ft | 394 kts | 221° |
| 2026-05-07 21:04 | 22.04963 | 39.81623 | 16523 ft | 392 kts | 221° |
| 2026-05-07 21:04 | 22.02276 | 39.79061 | 15650 ft | 387 kts | 221° |
| 2026-05-07 21:04 | 22.00921 | 39.77769 | 15227 ft | 379 kts | 221° |
| 2026-05-07 21:05 | 21.98996 | 39.75934 | 13981 ft | 364 kts | 221° |
| 2026-05-07 21:05 | 21.97115 | 39.74142 | 12324 ft | 361 kts | 221° |
| 2026-05-07 21:05 | 21.95253 | 39.72369 | 10779 ft | 361 kts | 221° |
| 2026-05-07 21:05 | 21.93389 | 39.70596 | 9900 ft | 342 kts | 221° |
| 2026-05-07 21:06 | 21.91668 | 39.68957 | 9339 ft | 319 kts | 221° |
| 2026-05-07 21:06 | 21.90080 | 39.67447 | 8799 ft | 300 kts | 221° |
| 2026-05-07 21:06 | 21.88537 | 39.65978 | 8195 ft | 293 kts | 221° |
| 2026-05-07 21:06 | 21.87028 | 39.64543 | 7693 ft | 286 kts | 221° |
| 2026-05-07 21:07 | 21.85547 | 39.63135 | 7144 ft | 283 kts | 221° |
| 2026-05-07 21:07 | 21.84080 | 39.61741 | 6630 ft | 278 kts | 220° |
| 2026-05-07 21:07 | 21.82646 | 39.60378 | 6186 ft | 272 kts | 220° |
| 2026-05-07 21:07 | 21.81244 | 39.59046 | 5712 ft | 267 kts | 220° |
| 2026-05-07 21:08 | 21.79857 | 39.57731 | 5195 ft | 264 kts | 220° |
| 2026-05-07 21:08 | 21.78481 | 39.56425 | 4651 ft | 264 kts | 221° |
| 2026-05-07 21:08 | 21.77104 | 39.55120 | 4310 ft | 266 kts | 221° |
| 2026-05-07 21:08 | 21.75693 | 39.53782 | 4206 ft | 273 kts | 221° |
| 2026-05-07 21:09 | 21.74274 | 39.52436 | 4145 ft | 272 kts | 221° |
| 2026-05-07 21:09 | 21.72853 | 39.51089 | 4082 ft | 272 kts | 222° |
| 2026-05-07 21:09 | 21.71438 | 39.49748 | 4025 ft | 269 kts | 222° |
| 2026-05-07 21:09 | 21.70041 | 39.48425 | 4016 ft | 267 kts | 221° |
| 2026-05-07 21:10 | 21.68638 | 39.47095 | 4017 ft | 271 kts | 222° |
| 2026-05-07 21:10 | 21.67212 | 39.45744 | 4017 ft | 274 kts | 221° |
| 2026-05-07 21:10 | 21.65782 | 39.44389 | 4009 ft | 274 kts | 222° |
| 2026-05-07 21:10 | 21.64354 | 39.43038 | 4003 ft | 272 kts | 221° |
| 2026-05-07 21:11 | 21.62939 | 39.41698 | 3992 ft | 271 kts | 221° |
| 2026-05-07 21:11 | 21.61525 | 39.40360 | 3989 ft | 270 kts | 221° |
| 2026-05-07 21:11 | 21.58714 | 39.37700 | 3995 ft | 271 kts | 221° |
| 2026-05-07 21:12 | 21.57292 | 39.36356 | 3829 ft | 274 kts | 222° |
| 2026-05-07 21:12 | 21.55856 | 39.35000 | 3502 ft | 274 kts | 222° |
| 2026-05-07 21:12 | 21.54428 | 39.33652 | 3177 ft | 271 kts | 224° |
| 2026-05-07 21:12 | 21.53321 | 39.32120 | 3035 ft | 256 kts | 249° |
| 2026-05-07 21:13 | 21.52727 | 39.30363 | 3011 ft | 243 kts | 252° |
| 2026-05-07 21:13 | 21.52155 | 39.28685 | 2814 ft | 236 kts | 252° |
| 2026-05-07 21:13 | 21.51604 | 39.27074 | 2732 ft | 222 kts | 255° |
| 2026-05-07 21:13 | 21.51536 | 39.25513 | 2596 ft | 203 kts | 289° |
| 2026-05-07 21:14 | 21.52301 | 39.24362 | 2480 ft | 184 kts | 324° |
| 2026-05-07 21:14 | 21.53348 | 39.23654 | 2150 ft | 175 kts | 333° |
| 2026-05-07 21:14 | 21.54409 | 39.23062 | 1999 ft | 169 kts | 335° |
| 2026-05-07 21:14 | 21.55455 | 39.22523 | 1934 ft | 166 kts | 338° |
| 2026-05-07 21:15 | 21.56526 | 39.22061 | 1916 ft | 166 kts | 341° |
| 2026-05-07 21:15 | 21.57603 | 39.21627 | 1878 ft | 165 kts | 342° |
| 2026-05-07 21:15 | 21.58653 | 39.21211 | 1653 ft | 151 kts | 341° |
| 2026-05-07 21:15 | 21.59557 | 39.20852 | 1470 ft | 127 kts | 342° |
| 2026-05-07 21:16 | 21.60378 | 39.20529 | 1317 ft | 126 kts | 342° |
| 2026-05-07 21:16 | 21.61211 | 39.20201 | 1163 ft | 128 kts | 341° |
| 2026-05-07 21:16 | 21.62047 | 39.19870 | 1016 ft | 130 kts | 341° |
| 2026-05-07 21:16 | 21.62901 | 39.19532 | 844 ft | 131 kts | 341° |
| 2026-05-07 21:17 | 21.63761 | 39.19202 | 647 ft | 132 kts | 340° |
| 2026-05-07 21:17 | 21.64615 | 39.18854 | 482 ft | 131 kts | 339° |
| 2026-05-07 21:17 | 21.65467 | 39.18502 | 355 ft | 131 kts | 340° |
| 2026-05-07 21:17 | 21.66314 | 39.18169 | 178 ft | 129 kts | 342° |
| 2026-05-07 21:18 | 21.67154 | 39.17846 | 55 ft | 123 kts | 340° |
| 2026-05-07 21:18 | 21.67829 | 39.17582 | 51 ft | 81 kts | 340° |
| 2026-05-07 21:18 | 21.68213 | 39.17423 | 50 ft | 43 kts | 331° |
| 2026-05-07 21:18 | 21.68358 | 39.17282 | 47 ft | 11 kts | 310° |
| 2026-05-07 21:19 | 21.68379 | 39.17255 | 45 ft | 2 kts | 310° |
| 2026-05-07 21:19 | 21.68393 | 39.17238 | 48 ft | 4 kts | 310° |
| 2026-05-07 21:19 | 21.68405 | 39.17219 | 51 ft | 1 kts | 303° |
| 2026-05-07 21:19 | 21.68407 | 39.17215 | 51 ft | 1 kts | 303° |
| 2026-05-07 21:20 | 21.68434 | 39.17173 | 51 ft | 13 kts | 303° |
| 2026-05-07 21:20 | 21.68486 | 39.17071 | 49 ft | 14 kts | 284° |
| 2026-05-07 21:20 | 21.68448 | 39.17029 | 50 ft | 9 kts | 191° |
| 2026-05-07 21:20 | 21.68351 | 39.17051 | 48 ft | 19 kts | 159° |
| 2026-05-07 21:21 | 21.68241 | 39.17092 | 46 ft | 16 kts | 161° |
| 2026-05-07 21:21 | 21.68143 | 39.17129 | 49 ft | 13 kts | 159° |
| 2026-05-07 21:21 | 21.68075 | 39.17157 | 51 ft | 4 kts | 159° |
| 2026-05-07 21:21 | 21.68070 | 39.17159 | 52 ft | 1 kts | 159° |
| 2026-05-07 21:22 | 21.68048 | 39.17168 | 50 ft | 7 kts | 159° |
| 2026-05-07 21:22 | 21.67979 | 39.17196 | 50 ft | 13 kts | 160° |
| 2026-05-07 21:22 | 21.67892 | 39.17229 | 50 ft | 14 kts | 160° |
| 2026-05-07 21:22 | 21.67796 | 39.17265 | 50 ft | 15 kts | 160° |
| 2026-05-07 21:23 | 21.67697 | 39.17306 | 52 ft | 15 kts | 159° |
| 2026-05-07 21:23 | 21.67594 | 39.17349 | 50 ft | 16 kts | 159° |
| 2026-05-07 21:23 | 21.67490 | 39.17391 | 55 ft | 15 kts | 160° |
| 2026-05-07 21:23 | 21.67402 | 39.17424 | 51 ft | 14 kts | 161° |
| 2026-05-07 21:24 | 21.67313 | 39.17456 | 50 ft | 14 kts | 161° |
| 2026-05-07 21:24 | 21.67223 | 39.17467 | 55 ft | 12 kts | 210° |
| 2026-05-07 21:24 | 21.67163 | 39.17400 | 49 ft | 13 kts | 228° |
| 2026-05-07 21:24 | 21.67099 | 39.17327 | 48 ft | 10 kts | 224° |
| 2026-05-07 21:25 | 21.67097 | 39.17296 | 50 ft | 4 kts | 290° |
| 2026-05-07 21:25 | 21.67119 | 39.17265 | 49 ft | 5 kts | 310° |
| 2026-05-07 21:25 | 21.67128 | 39.17253 | 49 ft | 2 kts | 311° |
| 2026-05-07 21:25 | 21.67132 | 39.17249 | 50 ft | 0 kts | 312° |
| 2026-05-07 21:26 | 21.67132 | 39.17248 | 51 ft | 0 kts | 312° |